createdAt,value
2019-03-26T00:00:34.553Z,3.90
2019-03-26T00:03:03.656Z,3.90
2019-03-26T00:05:32.093Z,3.90
2019-03-26T00:08:00.520Z,3.90
2019-03-26T00:10:28.945Z,3.90
2019-03-26T00:12:57.385Z,3.90
2019-03-26T00:15:25.814Z,3.90
2019-03-26T00:17:54.249Z,3.90
2019-03-26T00:20:22.977Z,3.90
2019-03-26T00:22:51.413Z,3.90
2019-03-26T00:25:19.913Z,3.80
2019-03-26T00:27:48.442Z,3.80
2019-03-26T00:30:17.014Z,3.80
2019-03-26T00:32:45.460Z,3.80
2019-03-26T00:35:13.951Z,3.80
2019-03-26T00:37:42.405Z,3.80
2019-03-26T00:40:11.165Z,3.70
2019-03-26T00:42:39.617Z,3.70
2019-03-26T00:45:08.218Z,3.70
2019-03-26T00:47:36.671Z,3.70
2019-03-26T00:50:06.625Z,3.70
2019-03-26T00:52:35.148Z,3.70
2019-03-26T00:55:04.917Z,3.70
2019-03-26T00:57:33.381Z,3.70
2019-03-26T01:00:02.545Z,3.70
2019-03-26T01:02:30.980Z,3.70
2019-03-26T01:04:59.406Z,3.70
2019-03-26T01:07:28.128Z,3.70
2019-03-26T01:09:56.918Z,3.70
2019-03-26T01:12:25.372Z,3.70
2019-03-26T01:14:53.805Z,3.70
2019-03-26T01:17:22.671Z,3.70
2019-03-26T01:19:51.375Z,3.70
2019-03-26T01:22:19.819Z,3.60
2019-03-26T01:24:48.242Z,3.60
2019-03-26T01:27:16.680Z,3.60
2019-03-26T01:29:45.361Z,3.50
2019-03-26T01:32:13.805Z,3.50
2019-03-26T01:34:46.192Z,3.50
2019-03-26T01:37:12.415Z,3.60
2019-03-26T01:39:40.918Z,3.50
2019-03-26T01:42:09.361Z,3.60
2019-03-26T01:44:37.794Z,3.50
2019-03-26T01:47:06.237Z,3.50
2019-03-26T01:49:34.978Z,3.50
2019-03-26T01:52:03.430Z,3.50
2019-03-26T01:54:31.853Z,3.40
2019-03-26T01:57:00.303Z,3.40
2019-03-26T01:59:28.733Z,3.30
2019-03-26T02:01:57.436Z,3.20
2019-03-26T02:04:25.872Z,3.10
2019-03-26T02:06:54.312Z,3.00
2019-03-26T02:09:22.742Z,2.90
2019-03-26T02:11:51.190Z,2.90
2019-03-26T02:14:19.894Z,2.90
2019-03-26T02:16:48.338Z,2.80
2019-03-26T02:19:16.774Z,2.80
2019-03-26T02:21:45.305Z,2.70
2019-03-26T02:24:13.757Z,2.80
2019-03-26T02:26:42.186Z,2.80
2019-03-26T02:29:10.633Z,2.80
2019-03-26T02:31:39.082Z,2.80
2019-03-26T02:34:07.519Z,2.80
2019-03-26T02:36:36.131Z,2.80
2019-03-26T02:39:06.414Z,2.90
2019-03-26T02:41:37.807Z,2.90
2019-03-26T02:44:05.132Z,3.00
2019-03-26T02:46:33.573Z,3.00
2019-03-26T02:49:02.007Z,3.00
2019-03-26T02:51:30.439Z,3.00
2019-03-26T02:53:58.902Z,3.00
2019-03-26T02:56:27.340Z,3.00
2019-03-26T02:58:55.787Z,3.10
2019-03-26T03:01:24.547Z,3.10
2019-03-26T03:03:53.010Z,3.10
2019-03-26T03:06:21.506Z,3.10
2019-03-26T03:08:50.283Z,3.10
2019-03-26T03:11:18.714Z,3.10
2019-03-26T03:13:47.161Z,3.10
2019-03-26T03:16:15.603Z,3.20
2019-03-26T03:18:44.041Z,3.20
2019-03-26T03:21:12.473Z,3.20
2019-03-26T03:23:40.919Z,3.20
2019-03-26T03:26:09.356Z,3.20
2019-03-26T03:28:37.790Z,3.20
2019-03-26T03:31:06.222Z,3.20
2019-03-26T03:33:34.666Z,3.20
2019-03-26T03:36:03.112Z,3.20
2019-03-26T03:38:31.621Z,3.20
2019-03-26T03:41:00.367Z,3.20
2019-03-26T03:43:29.653Z,3.20
2019-03-26T03:45:58.933Z,3.20
2019-03-26T03:48:27.461Z,3.20
2019-03-26T03:50:57.045Z,3.30
2019-03-26T03:53:26.421Z,3.30
2019-03-26T03:55:56.095Z,3.30
2019-03-26T03:58:25.674Z,3.30
2019-03-26T04:00:54.108Z,3.30
2019-03-26T04:03:22.549Z,3.30
2019-03-26T04:06:07.697Z,3.30
2019-03-26T04:08:21.150Z,3.30
2019-03-26T04:10:49.584Z,3.40
2019-03-26T04:13:18.029Z,3.40
2019-03-26T04:15:46.466Z,3.30
2019-03-26T04:18:14.909Z,3.40
2019-03-26T04:20:43.350Z,3.30
2019-03-26T04:23:11.822Z,3.30
2019-03-26T04:25:40.242Z,3.30
2019-03-26T04:28:09.360Z,3.30
2019-03-26T04:30:37.781Z,3.30
2019-03-26T04:33:06.253Z,3.30
2019-03-26T04:35:34.690Z,3.30
2019-03-26T04:38:03.118Z,3.20
2019-03-26T04:40:31.562Z,3.20
2019-03-26T04:43:00.095Z,3.20
2019-03-26T04:45:28.529Z,3.20
2019-03-26T04:47:56.975Z,3.10
2019-03-26T04:50:25.409Z,3.10
2019-03-26T04:52:54.324Z,3.10
2019-03-26T04:55:23.085Z,3.10
2019-03-26T04:57:51.545Z,3.10
2019-03-26T05:00:20.613Z,3.10
2019-03-26T05:02:49.127Z,3.10
2019-03-26T05:05:17.558Z,3.10
2019-03-26T05:07:46.001Z,3.10
2019-03-26T05:10:14.500Z,3.20
2019-03-26T05:12:42.945Z,3.10
2019-03-26T05:15:11.649Z,3.10
2019-03-26T05:17:40.097Z,3.20
2019-03-26T05:20:08.669Z,3.20
2019-03-26T05:22:37.105Z,3.20
2019-03-26T05:25:07.550Z,3.20
2019-03-26T05:27:45.160Z,3.20
2019-03-26T05:30:08.555Z,3.20
2019-03-26T05:32:37.057Z,3.30
2019-03-26T05:35:06.433Z,3.30
2019-03-26T05:37:34.935Z,3.30
2019-03-26T05:40:04.829Z,3.40
2019-03-26T05:42:33.261Z,3.40
2019-03-26T05:45:01.713Z,3.40
2019-03-26T05:47:30.150Z,3.40
2019-03-26T05:49:58.599Z,3.40
2019-03-26T05:52:27.036Z,3.50
2019-03-26T05:54:55.484Z,3.50
2019-03-26T05:57:23.948Z,3.50
2019-03-26T05:59:52.440Z,3.60
2019-03-26T06:02:20.906Z,3.60
2019-03-26T06:04:49.650Z,3.60
2019-03-26T06:07:18.081Z,3.70
2019-03-26T06:09:46.546Z,3.70
2019-03-26T06:12:15.238Z,3.70
2019-03-26T06:14:43.685Z,3.70
2019-03-26T06:17:12.116Z,3.80
2019-03-26T06:19:40.565Z,3.80
2019-03-26T06:22:09.001Z,3.80
2019-03-26T06:24:37.450Z,3.90
2019-03-26T06:27:05.890Z,3.90
2019-03-26T06:29:34.335Z,3.90
2019-03-26T06:32:02.868Z,4.00
2019-03-26T06:34:31.309Z,4.00
2019-03-26T06:36:59.989Z,4.00
2019-03-26T06:39:28.433Z,4.00
2019-03-26T06:41:56.866Z,4.00
2019-03-26T06:44:25.311Z,4.10
2019-03-26T06:46:53.741Z,4.10
2019-03-26T06:49:22.206Z,4.20
2019-03-26T06:51:50.683Z,4.20
2019-03-26T06:54:19.107Z,4.30
2019-03-26T06:56:47.561Z,4.40
2019-03-26T06:59:15.999Z,4.40
2019-03-26T07:01:44.425Z,4.60
2019-03-26T07:04:12.858Z,4.70
2019-03-26T07:06:41.326Z,4.80
2019-03-26T07:09:09.754Z,4.80
2019-03-26T07:11:38.203Z,4.80
2019-03-26T07:14:06.634Z,4.80
2019-03-26T07:16:35.081Z,4.90
2019-03-26T07:19:03.830Z,4.90
2019-03-26T07:21:32.273Z,5.00
2019-03-26T07:24:00.776Z,5.00
2019-03-26T07:26:29.233Z,5.10
2019-03-26T07:28:57.665Z,5.10
2019-03-26T07:31:26.125Z,5.10
2019-03-26T07:33:54.821Z,5.20
2019-03-26T07:36:23.286Z,5.30
2019-03-26T07:38:51.722Z,5.20
2019-03-26T07:41:20.177Z,5.20
2019-03-26T07:43:48.614Z,5.30
2019-03-26T07:46:17.100Z,5.30
2019-03-26T07:48:45.528Z,5.40
2019-03-26T07:51:14.295Z,5.40
2019-03-26T07:53:42.737Z,5.50
2019-03-26T07:56:11.175Z,5.50
2019-03-26T07:58:39.614Z,5.60
2019-03-26T08:01:08.134Z,5.60
2019-03-26T08:03:36.569Z,5.60
2019-03-26T08:06:05.009Z,5.60
2019-03-26T08:08:33.446Z,5.60
2019-03-26T08:11:01.962Z,5.60
2019-03-26T08:13:30.425Z,5.60
2019-03-26T08:15:59.082Z,5.70
2019-03-26T08:18:27.513Z,5.60
2019-03-26T08:20:57.423Z,5.70
2019-03-26T08:23:26.093Z,5.70
2019-03-26T08:25:54.538Z,5.70
2019-03-26T08:28:23.277Z,5.80
2019-03-26T08:30:51.721Z,5.70
2019-03-26T08:33:23.242Z,5.60
2019-03-26T08:35:50.321Z,5.70
2019-03-26T08:38:18.766Z,5.80
2019-03-26T08:40:47.204Z,5.80
2019-03-26T08:43:15.638Z,5.80
2019-03-26T08:45:44.081Z,5.80
2019-03-26T08:48:12.854Z,5.80
2019-03-26T08:50:41.321Z,5.70
2019-03-26T08:53:09.769Z,5.80
2019-03-26T08:55:38.218Z,5.80
2019-03-26T08:58:06.765Z,5.80
2019-03-26T09:00:35.221Z,5.80
2019-03-26T09:03:03.669Z,5.80
2019-03-26T09:05:32.167Z,5.80
2019-03-26T09:08:00.612Z,5.90
2019-03-26T09:10:29.036Z,6.00
2019-03-26T09:12:57.476Z,6.00
2019-03-26T09:15:25.907Z,6.10
2019-03-26T09:17:54.349Z,6.10
2019-03-26T09:20:23.115Z,6.20
2019-03-26T09:22:51.558Z,6.30
2019-03-26T09:25:19.985Z,6.40
2019-03-26T09:27:48.487Z,6.40
2019-03-26T09:30:17.062Z,6.40
2019-03-26T09:32:45.505Z,6.30
2019-03-26T09:35:14.729Z,6.40
2019-03-26T09:37:43.513Z,6.50
2019-03-26T09:40:12.477Z,6.60
2019-03-26T09:42:40.925Z,6.60
2019-03-26T09:45:10.583Z,6.50
2019-03-26T09:47:39.306Z,6.60
2019-03-26T09:50:09.926Z,6.60
2019-03-26T09:52:38.357Z,6.70
2019-03-26T09:55:08.921Z,6.80
2019-03-26T09:57:37.722Z,6.90
2019-03-26T10:00:08.970Z,6.90
2019-03-26T10:02:37.489Z,7.00
2019-03-26T10:05:07.356Z,7.00
2019-03-26T10:07:36.045Z,7.00
2019-03-26T10:10:06.938Z,7.10
2019-03-26T10:12:35.369Z,7.10
2019-03-26T10:15:05.850Z,7.20
2019-03-26T10:17:34.290Z,7.20
2019-03-26T10:20:02.784Z,7.30
2019-03-26T10:22:31.224Z,7.40
2019-03-26T10:24:59.649Z,7.40
2019-03-26T10:27:28.104Z,7.60
2019-03-26T10:29:56.526Z,7.70
2019-03-26T10:32:24.987Z,7.70
2019-03-26T10:34:53.449Z,7.70
2019-03-26T10:37:22.237Z,7.70
2019-03-26T10:39:50.657Z,7.70
2019-03-26T10:42:19.106Z,7.70
2019-03-26T10:44:47.931Z,7.70
2019-03-26T10:47:16.403Z,7.70
2019-03-26T10:49:45.091Z,7.60
2019-03-26T10:52:13.566Z,7.70
2019-03-26T10:54:42.086Z,7.70
2019-03-26T10:57:10.517Z,7.80
2019-03-26T10:59:38.962Z,7.80
2019-03-26T11:02:07.417Z,7.80
2019-03-26T11:04:36.150Z,7.80
2019-03-26T11:07:04.572Z,7.90
2019-03-26T11:09:33.014Z,7.90
2019-03-26T11:12:01.477Z,7.90
2019-03-26T11:14:31.769Z,8.10
2019-03-26T11:17:00.093Z,8.20
2019-03-26T11:19:28.524Z,8.10
2019-03-26T11:21:56.946Z,7.90
2019-03-26T11:24:25.384Z,7.80
2019-03-26T11:26:54.129Z,7.60
2019-03-26T11:29:22.561Z,7.60
2019-03-26T11:31:51.001Z,7.70
2019-03-26T11:34:19.429Z,7.60
2019-03-26T11:36:47.861Z,7.60
2019-03-26T11:39:16.297Z,7.60
2019-03-26T11:41:44.727Z,7.60
2019-03-26T11:44:13.169Z,7.70
2019-03-26T11:46:41.597Z,7.80
2019-03-26T11:49:10.062Z,7.80
2019-03-26T11:51:38.489Z,7.80
2019-03-26T11:54:06.946Z,7.90
2019-03-26T11:56:35.706Z,7.90
2019-03-26T11:59:04.305Z,8.00
2019-03-26T12:01:32.721Z,7.90
2019-03-26T12:04:01.185Z,8.00
2019-03-26T12:06:29.613Z,8.00
2019-03-26T12:08:58.044Z,8.10
2019-03-26T12:11:26.534Z,8.10
2019-03-26T12:13:54.984Z,8.00
2019-03-26T12:16:23.412Z,8.10
2019-03-26T12:18:51.869Z,8.10
2019-03-26T12:21:20.558Z,8.10
2019-03-26T12:23:48.988Z,8.10
2019-03-26T12:26:17.425Z,8.30
2019-03-26T12:28:45.870Z,8.30
2019-03-26T12:31:14.297Z,8.30
2019-03-26T12:33:42.806Z,8.60
2019-03-26T12:36:11.234Z,8.60
2019-03-26T12:38:39.668Z,8.70
2019-03-26T12:41:08.102Z,8.80
2019-03-26T12:43:36.609Z,8.90
2019-03-26T12:46:05.311Z,8.80
2019-03-26T12:48:33.745Z,8.70
2019-03-26T12:51:02.174Z,8.70
2019-03-26T12:53:30.605Z,8.90
2019-03-26T12:55:59.206Z,8.90
2019-03-26T12:58:32.124Z,8.90
2019-03-26T13:00:58.567Z,8.80
2019-03-26T13:03:26.996Z,8.70
2019-03-26T13:05:55.432Z,8.70
2019-03-26T13:08:23.853Z,8.70
2019-03-26T13:10:53.849Z,8.70
2019-03-26T13:13:22.454Z,8.80
2019-03-26T13:15:50.886Z,8.80
2019-03-26T13:18:19.311Z,8.70
2019-03-26T13:20:47.997Z,8.70
2019-03-26T13:23:16.886Z,8.70
2019-03-26T13:25:45.392Z,8.70
2019-03-26T13:28:13.818Z,8.70
2019-03-26T13:30:42.260Z,8.70
2019-03-26T13:33:10.677Z,8.80
2019-03-26T13:35:39.118Z,8.70
2019-03-26T13:38:07.795Z,8.70
2019-03-26T13:40:36.249Z,8.70
2019-03-26T13:43:04.873Z,8.60
2019-03-26T13:45:33.309Z,8.50
2019-03-26T13:48:01.731Z,8.70
2019-03-26T13:50:30.167Z,8.60
2019-03-26T13:52:58.594Z,8.60
2019-03-26T13:55:27.032Z,8.50
2019-03-26T13:57:55.729Z,8.40
2019-03-26T14:00:35.093Z,8.50
2019-03-26T14:03:04.063Z,8.50
2019-03-26T14:05:32.498Z,8.60
2019-03-26T14:08:01.341Z,8.50
2019-03-26T14:10:40.196Z,8.50
2019-03-26T14:13:00.355Z,8.60
2019-03-26T14:15:29.134Z,8.60
2019-03-26T14:17:57.561Z,8.60
2019-03-26T14:20:26.091Z,8.60
2019-03-26T14:22:54.518Z,8.50
2019-03-26T14:25:23.021Z,8.50
2019-03-26T14:27:51.750Z,8.50
2019-03-26T14:30:40.801Z,8.50
2019-03-26T14:33:09.968Z,8.60
2019-03-26T14:35:38.554Z,8.70
2019-03-26T14:38:07.378Z,8.70
2019-03-26T14:40:36.074Z,8.70
2019-03-26T14:43:04.849Z,8.80
2019-03-26T14:45:33.356Z,8.80
2019-03-26T14:48:01.854Z,8.70
2019-03-26T14:50:30.291Z,8.70
2019-03-26T14:52:58.720Z,8.60
2019-03-26T14:55:27.177Z,8.70
2019-03-26T14:57:55.609Z,8.80
2019-03-26T15:00:24.045Z,8.70
2019-03-26T15:02:52.470Z,8.70
2019-03-26T15:05:20.933Z,8.70
2019-03-26T15:07:49.433Z,8.60
2019-03-26T15:10:18.029Z,8.50
2019-03-26T15:12:46.457Z,8.50
2019-03-26T15:15:15.238Z,8.50
2019-03-26T15:17:43.678Z,8.70
2019-03-26T15:20:12.638Z,8.60
2019-03-26T15:22:41.081Z,8.60
2019-03-26T15:25:09.641Z,8.50
2019-03-26T15:27:38.086Z,8.50
2019-03-26T15:30:08.258Z,8.50
2019-03-26T15:32:36.689Z,8.40
2019-03-26T15:35:06.361Z,8.40
2019-03-26T15:37:34.801Z,8.40
2019-03-26T15:40:03.903Z,8.40
2019-03-26T15:42:32.340Z,8.40
2019-03-26T15:45:00.789Z,8.40
2019-03-26T15:47:29.286Z,8.40
2019-03-26T15:50:01.291Z,8.40
2019-03-26T15:52:29.908Z,8.50
2019-03-26T15:54:58.331Z,8.70
2019-03-26T15:57:27.025Z,8.80
2019-03-26T15:59:55.714Z,8.80
2019-03-26T16:02:24.237Z,8.80
2019-03-26T16:04:52.699Z,8.60
2019-03-26T16:07:21.466Z,8.50
2019-03-26T16:09:49.944Z,8.40
2019-03-26T16:12:18.393Z,8.30
2019-03-26T16:14:46.820Z,8.30
2019-03-26T16:17:15.270Z,8.20
2019-03-26T16:19:43.690Z,8.30
2019-03-26T16:22:12.164Z,8.30
2019-03-26T16:24:40.582Z,8.20
2019-03-26T16:27:09.022Z,8.30
2019-03-26T16:29:37.452Z,8.10
2019-03-26T16:32:05.893Z,8.00
2019-03-26T16:34:34.321Z,7.90
2019-03-26T16:37:02.757Z,7.90
2019-03-26T16:39:31.185Z,7.80
2019-03-26T16:41:59.630Z,7.80
2019-03-26T16:44:28.048Z,7.80
2019-03-26T16:46:56.501Z,7.80
2019-03-26T16:49:24.921Z,7.80
2019-03-26T16:51:53.366Z,7.80
2019-03-26T16:54:21.790Z,7.80
2019-03-26T16:56:50.248Z,7.80
2019-03-26T16:59:18.669Z,7.70
2019-03-26T17:01:47.124Z,7.60
2019-03-26T17:04:15.544Z,7.60
2019-03-26T17:06:44.037Z,7.50
2019-03-26T17:09:12.494Z,7.50
2019-03-26T17:11:40.919Z,7.50
2019-03-26T17:14:09.352Z,7.40
2019-03-26T17:16:37.886Z,7.30
2019-03-26T17:19:06.332Z,7.30
2019-03-26T17:21:34.758Z,7.20
2019-03-26T17:24:03.542Z,7.10
2019-03-26T17:26:32.007Z,7.10
2019-03-26T17:29:00.438Z,7.00
2019-03-26T17:31:28.877Z,7.00
2019-03-26T17:33:57.386Z,7.00
2019-03-26T17:36:25.897Z,6.90
2019-03-26T17:38:54.334Z,6.90
2019-03-26T17:41:23.113Z,6.80
2019-03-26T17:43:51.902Z,6.80
2019-03-26T17:46:20.337Z,6.80
2019-03-26T17:48:48.783Z,6.80
2019-03-26T17:51:17.213Z,6.70
2019-03-26T17:53:45.717Z,6.70
2019-03-26T17:56:14.137Z,6.70
2019-03-26T17:58:42.582Z,6.70
2019-03-26T18:01:11.277Z,6.70
2019-03-26T18:03:39.857Z,6.60
2019-03-26T18:06:08.292Z,6.60
2019-03-26T18:08:36.725Z,6.60
2019-03-26T18:11:05.156Z,6.60
2019-03-26T18:13:33.605Z,6.50
2019-03-26T18:16:02.062Z,6.50
2019-03-26T18:18:30.553Z,6.50
2019-03-26T18:20:59.010Z,6.50
2019-03-26T18:23:27.701Z,6.50
2019-03-26T18:25:56.124Z,6.50
2019-03-26T18:28:24.576Z,6.50
2019-03-26T18:30:53.009Z,6.40
2019-03-26T18:33:21.469Z,6.30
2019-03-26T18:35:49.930Z,6.30
2019-03-26T18:38:18.354Z,6.30
2019-03-26T18:40:47.042Z,6.20
2019-03-26T18:43:15.489Z,6.20
2019-03-26T18:45:43.916Z,6.20
2019-03-26T18:48:12.361Z,6.20
2019-03-26T18:50:40.790Z,6.20
2019-03-26T18:53:09.235Z,6.20
2019-03-26T18:55:37.666Z,6.20
2019-03-26T18:58:06.109Z,6.20
2019-03-26T19:00:36.678Z,6.10
2019-03-26T19:03:06.491Z,6.10
2019-03-26T19:05:34.917Z,6.00
2019-03-26T19:08:03.890Z,6.00
2019-03-26T19:10:34.641Z,6.00
2019-03-26T19:13:03.514Z,5.90
2019-03-26T19:15:32.380Z,5.90
2019-03-26T19:18:00.961Z,5.90
2019-03-26T19:20:29.665Z,6.00
2019-03-26T19:22:58.101Z,5.90
2019-03-26T19:25:26.552Z,6.00
2019-03-26T19:27:55.049Z,5.90
2019-03-26T19:30:23.497Z,5.90
2019-03-26T19:32:51.937Z,5.90
2019-03-26T19:35:20.393Z,5.90
2019-03-26T19:37:48.813Z,5.90
2019-03-26T19:40:17.406Z,5.90
2019-03-26T19:42:45.869Z,5.80
2019-03-26T19:45:14.446Z,5.80
2019-03-26T19:47:42.976Z,5.80
2019-03-26T19:50:12.045Z,5.80
2019-03-26T19:52:40.512Z,5.70
2019-03-26T19:55:09.729Z,5.70
2019-03-26T19:57:38.178Z,5.70
2019-03-26T20:00:12.458Z,5.60
2019-03-26T20:02:40.884Z,5.70
2019-03-26T20:05:10.422Z,5.70
2019-03-26T20:07:38.853Z,5.70
2019-03-26T20:10:08.866Z,5.60
2019-03-26T20:12:37.372Z,5.60
2019-03-26T20:15:10.621Z,5.60
2019-03-26T20:17:39.054Z,5.70
2019-03-26T20:20:09.429Z,5.60
2019-03-26T20:22:37.859Z,5.60
2019-03-26T20:25:07.038Z,5.60
2019-03-26T20:27:35.465Z,5.50
2019-03-26T20:30:07.045Z,5.50
2019-03-26T20:32:35.727Z,5.40
2019-03-26T20:35:09.693Z,5.30
2019-03-26T20:37:38.133Z,5.20
2019-03-26T20:40:08.962Z,5.20
2019-03-26T20:42:40.529Z,5.20
2019-03-26T20:45:14.212Z,5.20
2019-03-26T20:47:41.242Z,5.30
2019-03-26T20:50:10.815Z,5.20
2019-03-26T20:52:39.325Z,5.30
2019-03-26T20:55:10.116Z,5.30
2019-03-26T20:57:38.566Z,5.30
2019-03-26T21:00:09.012Z,5.30
2019-03-26T21:02:37.453Z,5.20
2019-03-26T21:05:08.018Z,5.20
2019-03-26T21:07:37.619Z,5.20
2019-03-26T21:10:08.317Z,5.10
2019-03-26T21:12:37.106Z,5.20
2019-03-26T21:15:26.398Z,5.20
2019-03-26T21:17:55.109Z,5.20
2019-03-26T21:20:23.545Z,5.20
2019-03-26T21:22:52.013Z,5.20
2019-03-26T21:25:20.430Z,5.20
2019-03-26T21:27:48.897Z,5.20
2019-03-26T21:30:17.384Z,5.20
2019-03-26T21:32:45.832Z,5.10
2019-03-26T21:35:14.489Z,5.10
2019-03-26T21:37:43.006Z,5.00
2019-03-26T21:40:11.778Z,5.10
2019-03-26T21:42:40.232Z,5.00
2019-03-26T21:45:11.017Z,5.10
2019-03-26T21:47:39.711Z,5.10
2019-03-26T21:50:08.910Z,5.00
2019-03-26T21:52:37.369Z,5.00
2019-03-26T21:55:08.403Z,5.00
2019-03-26T21:57:36.852Z,4.90
2019-03-26T22:00:09.657Z,4.90
2019-03-26T22:02:38.102Z,4.90
2019-03-26T22:05:10.141Z,4.90
2019-03-26T22:07:37.972Z,4.80
2019-03-26T22:10:08.340Z,4.80
2019-03-26T22:12:37.141Z,4.80
2019-03-26T22:15:10.564Z,4.80
2019-03-26T22:17:39.005Z,4.90
2019-03-26T22:20:08.502Z,4.90
2019-03-26T22:22:36.946Z,4.90
2019-03-26T22:25:07.472Z,5.00
2019-03-26T22:27:35.990Z,5.00
2019-03-26T22:30:07.454Z,5.10
2019-03-26T22:32:35.968Z,5.10
2019-03-26T22:35:07.000Z,5.10
2019-03-26T22:37:35.435Z,5.10
2019-03-26T22:40:06.218Z,5.10
2019-03-26T22:42:34.650Z,5.10
2019-03-26T22:45:04.154Z,5.00
2019-03-26T22:47:32.581Z,5.00
2019-03-26T22:50:01.015Z,5.00
2019-03-26T22:52:29.442Z,5.10
2019-03-26T22:54:57.879Z,5.10
2019-03-26T22:57:26.311Z,5.10
2019-03-26T22:59:54.745Z,5.10
2019-03-26T23:02:23.446Z,5.20
2019-03-26T23:04:51.886Z,5.20
2019-03-26T23:07:20.317Z,5.20
2019-03-26T23:09:48.753Z,5.20
2019-03-26T23:12:17.186Z,5.20
2019-03-26T23:14:45.736Z,5.30
2019-03-26T23:17:14.300Z,5.30
2019-03-26T23:19:42.744Z,5.30
2019-03-26T23:22:11.168Z,5.20
2019-03-26T23:24:39.886Z,5.30
2019-03-26T23:27:08.324Z,5.40
2019-03-26T23:29:36.758Z,5.50
2019-03-26T23:32:05.194Z,5.60
2019-03-26T23:34:33.631Z,5.50
2019-03-26T23:37:02.394Z,5.40
2019-03-26T23:39:30.829Z,5.50
2019-03-26T23:41:59.257Z,5.50
2019-03-26T23:44:27.693Z,5.50
2019-03-26T23:46:56.125Z,5.40
2019-03-26T23:49:24.576Z,5.40
2019-03-26T23:51:53.006Z,5.40
2019-03-26T23:54:21.457Z,5.30
2019-03-26T23:56:49.964Z,5.40
2019-03-26T23:59:18.409Z,5.40
